Time;durP1;ratioP1;P1;durP2;ratioP2;P2;SDS_P1;SDS_P2;PMS_P1;PMS_P2;Temp;Humidity;BMP_temperature;BMP_pressure;BME280_temperature;BME280_humidity;BME280_pressure;Samples;Min_cycle;Max_cycle;Signal;HPM_P1;HPM_P2
2022/10/03 00:00:41;;;;;;;;;;;20.40;99.90;;;;;;4982098;28;20402;-59
2022/10/03 00:03:17;;;;;;;;;;;20.40;99.90;;;;;;4972306;28;19965;-62
2022/10/03 00:05:56;;;;;;;;;;;20.40;99.90;;;;;;4983495;28;19930;-61
2022/10/03 00:08:35;;;;;;;;;;;20.40;99.90;;;;;;4981068;28;19930;-59
2022/10/03 00:11:20;;;;;;;;;;;20.40;99.90;;;;;;4968242;28;19938;-61
2022/10/03 00:13:47;;;;;;;;;;;20.40;99.90;;;;;;4965862;28;20309;-61
2022/10/03 00:16:22;;;;;;;;;;;20.30;99.90;;;;;;4964936;28;19930;-59
2022/10/03 00:19:01;;;;;;;;;;;20.40;99.90;;;;;;4967403;28;19933;-62
2022/10/03 00:21:47;;;;;;;;;;;20.40;99.90;;;;;;4977551;28;19936;-61
2022/10/03 00:24:33;;;;;;;;;;;20.30;99.90;;;;;;4972823;28;19937;-57
2022/10/03 00:27:00;;;;;;;;;;;20.30;99.90;;;;;;4980694;28;20306;-59
2022/10/03 00:29:46;;;;;;;;;;;20.30;99.90;;;;;;4979540;28;19930;-59
2022/10/03 00:32:22;;;;;;;;;;;20.30;99.90;;;;;;4982320;28;20278;-58
2022/10/03 00:34:52;;;;;;;;;;;20.30;99.90;;;;;;4978052;28;20277;-58
2022/10/03 00:37:38;;;;;;;;;;;20.30;99.90;;;;;;4969688;28;19926;-61
2022/10/03 00:40:24;;;;;;;;;;;20.30;99.90;;;;;;4983828;28;19948;-60
2022/10/03 00:43:10;;;;;;;;;;;20.30;99.90;;;;;;4979769;28;19937;-60
2022/10/03 00:45:50;;;;;;;;;;;20.30;99.90;;;;;;4971602;28;20393;-56
2022/10/03 00:48:43;;;;;;;;;;;20.20;99.90;;;;;;4968934;28;19942;-60
2022/10/03 00:51:28;;;;;;;;;;;20.20;99.90;;;;;;4976470;28;19934;-58
2022/10/03 00:54:14;;;;;;;;;;;20.30;99.90;;;;;;4999813;28;19937;-58
2022/10/03 00:56:53;;;;;;;;;;;20.20;99.90;;;;;;4965541;28;19930;-61
2022/10/03 00:59:41;;;;;;;;;;;20.20;99.90;;;;;;4969747;28;19934;-55
2022/10/03 01:02:28;;;;;;;;;;;20.20;99.90;;;;;;4985072;28;19937;-55
2022/10/03 01:04:56;;;;;;;;;;;20.20;99.90;;;;;;4972782;28;19926;-58
2022/10/03 01:07:55;;;;;;;;;;;20.20;99.90;;;;;;4978591;28;19930;-56
2022/10/03 01:10:26;;;;;;;;;;;20.20;99.90;;;;;;4986430;28;19930;-55
2022/10/03 01:12:56;;;;;;;;;;;20.20;99.90;;;;;;4973592;28;19930;-57
2022/10/03 01:15:29;;;;;;;;;;;20.20;99.90;;;;;;4977259;28;19937;-58
2022/10/03 01:18:09;;;;;;;;;;;20.20;99.90;;;;;;4986279;28;19937;-58
2022/10/03 01:20:45;;;;;;;;;;;20.10;99.90;;;;;;4978650;28;20313;-59
2022/10/03 01:23:29;;;;;;;;;;;20.10;99.90;;;;;;4985809;28;19937;-58
2022/10/03 01:26:35;;;;;;;;;;;20.20;99.90;;;;;;4966098;28;19930;-59
2022/10/03 01:32:15;;;;;;;;;;;20.10;99.90;;;;;;4926749;29;19938;-59
2022/10/03 01:34:42;;;;;;;;;;;20.10;99.90;;;;;;4956848;28;20330;-61
2022/10/03 01:37:12;;;;;;;;;;;20.10;99.90;;;;;;4966625;28;19931;-61
2022/10/03 01:39:49;;;;;;;;;;;20.10;99.90;;;;;;4961522;28;20434;-59
2022/10/03 01:42:30;;;;;;;;;;;20.10;99.90;;;;;;4972453;28;20298;-59
2022/10/03 01:45:16;;;;;;;;;;;20.10;99.90;;;;;;4966815;28;19937;-61
2022/10/03 01:47:50;;;;;;;;;;;20.10;99.90;;;;;;4967212;28;19930;-57
2022/10/03 01:50:25;;;;;;;;;;;20.10;99.90;;;;;;4986703;28;19933;-57
2022/10/03 01:52:52;;;;;;;;;;;20.10;99.90;;;;;;4972385;28;19941;-58
2022/10/03 01:55:40;;;;;;;;;;;20.00;99.90;;;;;;4987173;28;19933;-60
2022/10/03 01:58:22;;;;;;;;;;;20.00;99.90;;;;;;4975513;28;19937;-60
2022/10/03 02:00:55;;;;;;;;;;;20.00;99.90;;;;;;4974287;28;20393;-60
2022/10/03 02:03:26;;;;;;;;;;;20.00;99.90;;;;;;4977723;28;19941;-61
2022/10/03 02:05:59;;;;;;;;;;;20.00;99.90;;;;;;4974152;28;20318;-58
2022/10/03 02:08:42;;;;;;;;;;;20.00;99.90;;;;;;4979125;28;19930;-60
2022/10/03 02:11:09;;;;;;;;;;;20.00;99.90;;;;;;4979177;28;19941;-58
2022/10/03 02:13:45;;;;;;;;;;;20.00;99.90;;;;;;4981996;28;19933;-60
2022/10/03 02:16:19;;;;;;;;;;;20.00;99.90;;;;;;4977345;28;19954;-62
2022/10/03 02:19:02;;;;;;;;;;;20.00;99.90;;;;;;4977835;28;20332;-60
2022/10/03 02:21:30;;;;;;;;;;;20.00;99.90;;;;;;4982721;28;19933;-61
2022/10/03 02:24:16;;;;;;;;;;;20.00;99.90;;;;;;4976129;28;19930;-61
2022/10/03 02:26:44;;;;;;;;;;;20.00;99.90;;;;;;4963158;28;20418;-60
2022/10/03 02:29:14;;;;;;;;;;;20.00;99.90;;;;;;4984752;28;19938;-58
2022/10/03 02:32:00;;;;;;;;;;;19.90;99.90;;;;;;4974670;28;19937;-61
2022/10/03 02:34:45;;;;;;;;;;;19.90;99.90;;;;;;4982288;28;19929;-57
2022/10/03 02:37:31;;;;;;;;;;;19.90;99.90;;;;;;4974026;28;20047;-61
2022/10/03 02:40:04;;;;;;;;;;;19.90;99.90;;;;;;4989093;28;19930;-60
2022/10/03 02:42:31;;;;;;;;;;;19.90;99.90;;;;;;4961810;28;19932;-59
2022/10/03 02:45:07;;;;;;;;;;;19.90;99.90;;;;;;4988483;28;20326;-62
2022/10/03 02:47:34;;;;;;;;;;;19.90;99.90;;;;;;4979764;28;19950;-62
2022/10/03 02:50:31;;;;;;;;;;;19.90;99.90;;;;;;4975151;28;19925;-60
2022/10/03 02:53:01;;;;;;;;;;;19.90;99.90;;;;;;4967822;28;19931;-59
2022/10/03 02:55:55;;;;;;;;;;;19.90;99.90;;;;;;4974420;28;19930;-61
2022/10/03 02:58:28;;;;;;;;;;;19.90;99.90;;;;;;4988217;28;19930;-59
2022/10/03 03:01:14;;;;;;;;;;;19.90;99.90;;;;;;4980955;28;19933;-60
2022/10/03 03:04:04;;;;;;;;;;;19.90;99.90;;;;;;4968629;28;20338;-59
2022/10/03 03:06:51;;;;;;;;;;;19.90;99.90;;;;;;4980007;28;19932;-62
2022/10/03 03:09:28;;;;;;;;;;;19.80;99.90;;;;;;4978406;28;19938;-60
2022/10/03 03:12:07;;;;;;;;;;;19.90;99.90;;;;;;4979094;28;20314;-59
2022/10/03 03:14:40;;;;;;;;;;;19.80;99.90;;;;;;4971414;28;19933;-60
2022/10/03 03:17:20;;;;;;;;;;;19.80;99.90;;;;;;4977719;28;20390;-61
2022/10/03 03:19:59;;;;;;;;;;;19.80;99.90;;;;;;4995393;28;19930;-58
2022/10/03 03:22:31;;;;;;;;;;;19.80;99.90;;;;;;4986940;28;19931;-57
2022/10/03 03:24:58;;;;;;;;;;;19.80;99.90;;;;;;4988115;28;19953;-58
2022/10/03 03:27:37;;;;;;;;;;;19.80;99.90;;;;;;4978201;28;19949;-58
2022/10/03 03:30:07;;;;;;;;;;;19.80;99.90;;;;;;4958326;28;19927;-54
2022/10/03 03:32:46;;;;;;;;;;;19.80;99.90;;;;;;4982613;28;20310;-58
2022/10/03 03:35:25;;;;;;;;;;;19.70;99.90;;;;;;4974385;28;19963;-57
2022/10/03 03:38:06;;;;;;;;;;;19.80;99.90;;;;;;4972896;28;19941;-63
2022/10/03 03:40:33;;;;;;;;;;;19.80;99.90;;;;;;4972611;28;19934;-61
2022/10/03 03:43:20;;;;;;;;;;;19.80;99.90;;;;;;4969141;28;19930;-60
2022/10/03 03:45:50;;;;;;;;;;;19.70;99.90;;;;;;4985031;28;20310;-59
2022/10/03 03:48:36;;;;;;;;;;;19.80;99.90;;;;;;4978417;28;19935;-58
2022/10/03 03:51:13;;;;;;;;;;;19.80;99.90;;;;;;4981938;28;19934;-58
2022/10/03 03:53:53;;;;;;;;;;;19.70;99.90;;;;;;4963733;28;19925;-60
2022/10/03 03:56:39;;;;;;;;;;;19.80;99.90;;;;;;4975826;28;19937;-60
2022/10/03 03:59:12;;;;;;;;;;;19.80;99.90;;;;;;4978426;28;20394;-58
2022/10/03 04:01:55;;;;;;;;;;;19.80;99.90;;;;;;4975406;28;19926;-62
2022/10/03 04:04:38;;;;;;;;;;;19.90;99.90;;;;;;4963328;28;19937;-60
2022/10/03 04:07:06;;;;;;;;;;;19.90;99.90;;;;;;4973734;28;20312;-58
2022/10/03 04:09:51;;;;;;;;;;;20.00;99.90;;;;;;4974075;28;20500;-58
2022/10/03 04:12:25;;;;;;;;;;;20.30;99.90;;;;;;4981520;28;19945;-61
2022/10/03 04:15:30;;;;;;;;;;;20.60;99.90;;;;;;4991937;28;19929;-59
2022/10/03 04:20:59;;;;;;;;;;;21.20;99.90;;;;;;4936609;29;19927;-56
2022/10/03 04:23:26;;;;;;;;;;;21.50;99.90;;;;;;4969422;28;19936;-58
2022/10/03 04:26:03;;;;;;;;;;;21.70;99.90;;;;;;4971781;28;19941;-61
2022/10/03 04:28:37;;;;;;;;;;;21.70;99.90;;;;;;4969338;28;19933;-60
2022/10/03 04:31:23;;;;;;;;;;;21.90;99.90;;;;;;4968006;28;19931;-60
2022/10/03 04:33:59;;;;;;;;;;;22.00;99.90;;;;;;4962977;28;20313;-60
2022/10/03 04:36:46;;;;;;;;;;;22.00;99.90;;;;;;4978352;28;19930;-62
2022/10/03 04:39:13;;;;;;;;;;;22.10;99.90;;;;;;4957854;28;20295;-59
2022/10/03 04:41:43;;;;;;;;;;;22.10;99.90;;;;;;4971073;28;19925;-59
2022/10/03 04:44:20;;;;;;;;;;;22.20;99.90;;;;;;4974334;28;19930;-57
2022/10/03 04:46:51;;;;;;;;;;;22.20;99.90;;;;;;4983679;28;20340;-57
2022/10/03 04:49:40;;;;;;;;;;;22.20;99.90;;;;;;4973228;28;19926;-54
2022/10/03 04:52:25;;;;;;;;;;;22.20;99.90;;;;;;4982440;28;19930;-59
2022/10/03 04:55:01;;;;;;;;;;;22.20;99.90;;;;;;4967980;28;19930;-60
2022/10/03 04:57:31;;;;;;;;;;;22.20;99.90;;;;;;4967823;28;19934;-59
2022/10/03 05:00:02;;;;;;;;;;;22.20;99.90;;;;;;4974576;28;19930;-58
2022/10/03 05:02:33;;;;;;;;;;;22.20;99.90;;;;;;4981861;28;19937;-62
2022/10/03 05:05:19;;;;;;;;;;;22.20;99.90;;;;;;4964581;28;20291;-60
2022/10/03 05:07:53;;;;;;;;;;;22.10;99.90;;;;;;4970821;28;19926;-60
2022/10/03 05:10:38;;;;;;;;;;;22.00;99.90;;;;;;4976041;28;19937;-59
2022/10/03 05:13:11;;;;;;;;;;;22.00;99.90;;;;;;4971644;28;19931;-60
2022/10/03 05:15:48;;;;;;;;;;;21.90;99.90;;;;;;4967047;28;19930;-61
2022/10/03 05:18:24;;;;;;;;;;;21.90;99.90;;;;;;4965689;28;19934;-59
2022/10/03 05:21:04;;;;;;;;;;;21.90;99.90;;;;;;4968838;28;19929;-60
2022/10/03 05:23:43;;;;;;;;;;;21.90;99.90;;;;;;4981346;28;20385;-61
2022/10/03 05:26:13;;;;;;;;;;;21.90;99.90;;;;;;4990975;28;19936;-59
2022/10/03 05:29:24;;;;;;;;;;;21.90;99.90;;;;;;4964023;28;20371;-59
2022/10/03 05:32:09;;;;;;;;;;;21.80;99.90;;;;;;4969453;28;20390;-60
2022/10/03 05:34:37;;;;;;;;;;;21.80;99.90;;;;;;4985255;28;19930;-61
2022/10/03 05:37:19;;;;;;;;;;;21.80;99.90;;;;;;4973321;28;19945;-62
2022/10/03 05:40:06;;;;;;;;;;;21.70;99.90;;;;;;4980643;28;19933;-62
2022/10/03 05:42:42;;;;;;;;;;;21.70;99.90;;;;;;4974144;28;19926;-62
2022/10/03 05:45:30;;;;;;;;;;;21.70;99.90;;;;;;4982086;28;19926;-60
2022/10/03 05:48:16;;;;;;;;;;;21.70;99.90;;;;;;4976678;28;19930;-62
2022/10/03 05:50:56;;;;;;;;;;;21.70;99.90;;;;;;4982462;28;19930;-59
2022/10/03 05:53:24;;;;;;;;;;;21.60;99.90;;;;;;4983064;28;19937;-62
2022/10/03 05:56:01;;;;;;;;;;;21.60;99.90;;;;;;4974248;28;20406;-62
2022/10/03 05:58:37;;;;;;;;;;;21.60;99.90;;;;;;4973798;28;19934;-59
2022/10/03 06:01:39;;;;;;;;;;;21.50;99.90;;;;;;4975866;28;19932;-63
2022/10/03 06:04:22;;;;;;;;;;;21.50;99.90;;;;;;4967927;28;19930;-60
2022/10/03 06:07:04;;;;;;;;;;;21.50;99.90;;;;;;4977644;28;19997;-60
2022/10/03 06:09:50;;;;;;;;;;;21.40;99.90;;;;;;4977783;28;19926;-59
2022/10/03 06:12:43;;;;;;;;;;;21.40;99.90;;;;;;4977132;28;20325;-60
2022/10/03 06:15:29;;;;;;;;;;;21.40;99.90;;;;;;4972215;28;19926;-59
2022/10/03 06:18:14;;;;;;;;;;;20.20;99.90;;;;;;4974385;28;19929;-58
2022/10/03 06:20:54;;;;;;;;;;;20.10;99.90;;;;;;4963739;28;20431;-61
2022/10/03 06:23:27;;;;;;;;;;;20.40;99.90;;;;;;4977559;28;19960;-62
2022/10/03 06:26:07;;;;;;;;;;;20.80;99.90;;;;;;4980417;28;19930;-60
2022/10/03 06:28:52;;;;;;;;;;;21.00;99.90;;;;;;4972328;28;20376;-60
2022/10/03 06:31:38;;;;;;;;;;;21.20;99.90;;;;;;4968899;28;20232;-64
2022/10/03 06:34:25;;;;;;;;;;;21.30;99.90;;;;;;4965143;28;20349;-59
2022/10/03 06:37:07;;;;;;;;;;;21.50;99.90;;;;;;4969929;28;20584;-58
2022/10/03 06:39:52;;;;;;;;;;;21.60;99.90;;;;;;4976174;28;20193;-57
2022/10/03 06:42:38;;;;;;;;;;;21.70;99.90;;;;;;4970315;28;19994;-58
2022/10/03 06:45:15;;;;;;;;;;;21.80;99.90;;;;;;4965600;28;19931;-62
2022/10/03 06:47:46;;;;;;;;;;;21.90;99.90;;;;;;4963786;28;20276;-61
2022/10/03 06:50:39;;;;;;;;;;;21.90;99.90;;;;;;4967856;28;19930;-61
2022/10/03 06:53:15;;;;;;;;;;;22.00;99.90;;;;;;4967650;28;19930;-61
2022/10/03 06:55:48;;;;;;;;;;;22.00;99.90;;;;;;4967730;28;20329;-61
2022/10/03 06:58:34;;;;;;;;;;;22.10;99.90;;;;;;4959785;28;19927;-61
2022/10/03 07:01:01;;;;;;;;;;;22.20;99.90;;;;;;4986685;28;19934;-61
2022/10/03 07:03:48;;;;;;;;;;;22.20;99.90;;;;;;4984023;28;20317;-63
2022/10/03 07:06:28;;;;;;;;;;;22.10;99.90;;;;;;4987296;28;20298;-64
2022/10/03 07:09:11;;;;;;;;;;;22.10;99.90;;;;;;4978100;28;19933;-58
2022/10/03 07:11:47;;;;;;;;;;;22.10;99.90;;;;;;4970180;28;19930;-61
2022/10/03 07:14:35;;;;;;;;;;;22.10;99.90;;;;;;4972869;28;20434;-63
2022/10/03 07:17:05;;;;;;;;;;;22.00;99.90;;;;;;4972887;28;20449;-59
2022/10/03 07:19:47;;;;;;;;;;;22.00;99.90;;;;;;4969510;28;19929;-62
2022/10/03 07:22:33;;;;;;;;;;;21.90;99.90;;;;;;4972211;28;19941;-62
2022/10/03 07:25:04;;;;;;;;;;;21.90;99.90;;;;;;4969072;28;20033;-62
2022/10/03 07:27:31;;;;;;;;;;;21.80;99.90;;;;;;4965035;28;19937;-59
2022/10/03 07:30:12;;;;;;;;;;;21.80;99.90;;;;;;4967722;28;19930;-61
2022/10/03 07:32:50;;;;;;;;;;;21.80;99.90;;;;;;4963319;28;19926;-61
2022/10/03 07:35:26;;;;;;;;;;;21.80;99.90;;;;;;4980476;28;19941;-62
2022/10/03 07:41:06;;;;;;;;;;;21.70;99.90;;;;;;4969438;28;19930;-59
2022/10/03 07:43:54;;;;;;;;;;;21.70;99.90;;;;;;4974495;28;20433;-64
2022/10/03 07:46:34;;;;;;;;;;;21.70;99.90;;;;;;4987093;28;19926;-60
2022/10/03 07:49:13;;;;;;;;;;;21.60;99.90;;;;;;4980786;28;19957;-61
2022/10/03 07:51:53;;;;;;;;;;;21.60;99.90;;;;;;4967421;28;20161;-60
2022/10/03 07:54:20;;;;;;;;;;;21.60;99.90;;;;;;4975031;28;19930;-61
2022/10/03 07:57:03;;;;;;;;;;;21.50;99.90;;;;;;4966278;28;19933;-59
2022/10/03 07:59:39;;;;;;;;;;;21.50;99.90;;;;;;4989756;28;19926;-60
2022/10/03 08:02:24;;;;;;;;;;;21.50;99.90;;;;;;4984115;28;20405;-62
2022/10/03 08:04:54;;;;;;;;;;;21.40;99.90;;;;;;4974549;28;19933;-60
2022/10/03 08:07:39;;;;;;;;;;;21.40;99.90;;;;;;4970826;28;19926;-61
2022/10/03 08:10:08;;;;;;;;;;;21.40;99.90;;;;;;5001092;28;19933;-62
2022/10/03 08:12:45;;;;;;;;;;;21.40;99.90;;;;;;4980346;28;19926;-62
2022/10/03 08:15:19;;;;;;;;;;;21.40;99.90;;;;;;4967325;28;20007;-61
2022/10/03 08:17:59;;;;;;;;;;;21.30;99.90;;;;;;4995442;28;19930;-63
2022/10/03 08:20:26;;;;;;;;;;;21.30;99.90;;;;;;4973651;28;20286;-63
2022/10/03 08:23:12;;;;;;;;;;;21.30;99.90;;;;;;4982080;28;19937;-62
2022/10/03 08:25:55;;;;;;;;;;;21.30;99.90;;;;;;4987484;28;19942;-61
2022/10/03 08:28:45;;;;;;;;;;;21.30;99.90;;;;;;4987183;28;19936;-59
2022/10/03 08:31:24;;;;;;;;;;;21.30;99.90;;;;;;4972371;28;19936;-62
2022/10/03 08:34:10;;;;;;;;;;;21.20;99.90;;;;;;4973899;28;19925;-60
2022/10/03 08:36:44;;;;;;;;;;;21.20;99.90;;;;;;4974619;28;19938;-61
2022/10/03 08:39:29;;;;;;;;;;;21.30;99.90;;;;;;4962749;28;19930;-59
2022/10/03 08:41:59;;;;;;;;;;;21.20;99.90;;;;;;4974147;28;19936;-59
2022/10/03 08:44:56;;;;;;;;;;;21.20;99.90;;;;;;4971415;28;19934;-61
2022/10/03 08:47:25;;;;;;;;;;;21.20;99.90;;;;;;4964441;28;20346;-62
2022/10/03 08:50:14;;;;;;;;;;;21.20;99.90;;;;;;4988099;28;19930;-61
2022/10/03 08:52:43;;;;;;;;;;;21.20;99.90;;;;;;4965854;28;19926;-59
2022/10/03 08:55:29;;;;;;;;;;;21.10;99.90;;;;;;4980537;28;19926;-63
2022/10/03 08:58:04;;;;;;;;;;;21.10;99.90;;;;;;4967819;28;19934;-62
2022/10/03 09:00:41;;;;;;;;;;;21.10;99.90;;;;;;4973828;28;20417;-63
2022/10/03 09:03:27;;;;;;;;;;;21.00;99.90;;;;;;4977632;28;20441;-61
2022/10/03 09:06:12;;;;;;;;;;;21.10;99.90;;;;;;4977168;28;19930;-62
2022/10/03 09:08:58;;;;;;;;;;;21.00;99.90;;;;;;4961945;28;19926;-63
2022/10/03 09:11:40;;;;;;;;;;;21.00;99.90;;;;;;4981164;28;19932;-63
2022/10/03 09:14:26;;;;;;;;;;;21.00;99.90;;;;;;4978801;28;19930;-64
2022/10/03 09:17:08;;;;;;;;;;;21.00;99.90;;;;;;4980450;28;19950;-62
2022/10/03 09:19:54;;;;;;;;;;;21.00;99.90;;;;;;4968471;28;19930;-63
2022/10/03 09:22:30;;;;;;;;;;;21.00;99.90;;;;;;4972136;28;19926;-61
2022/10/03 09:25:06;;;;;;;;;;;21.00;99.90;;;;;;4990826;28;19930;-64
2022/10/03 09:27:41;;;;;;;;;;;21.00;99.90;;;;;;4980311;28;19942;-64
2022/10/03 09:30:37;;;;;;;;;;;20.90;99.90;;;;;;4972850;28;19978;-56
2022/10/03 09:33:04;;;;;;;;;;;20.90;99.90;;;;;;4966072;28;19926;-56
2022/10/03 09:35:47;;;;;;;;;;;20.90;99.90;;;;;;4979348;28;19925;-63
2022/10/03 09:38:14;;;;;;;;;;;20.90;99.90;;;;;;4972504;28;19930;-62
2022/10/03 09:41:00;;;;;;;;;;;20.90;99.90;;;;;;4969207;28;19949;-63
2022/10/03 09:43:51;;;;;;;;;;;20.80;99.90;;;;;;4979103;28;20318;-62
2022/10/03 09:46:37;;;;;;;;;;;20.80;99.90;;;;;;4990254;28;19937;-64
2022/10/03 09:49:26;;;;;;;;;;;20.80;99.90;;;;;;4973372;28;19937;-63
2022/10/03 09:52:08;;;;;;;;;;;20.80;99.90;;;;;;4977031;28;20268;-63
2022/10/03 09:54:48;;;;;;;;;;;20.80;99.90;;;;;;4976628;28;20282;-62
2022/10/03 09:57:37;;;;;;;;;;;20.80;99.90;;;;;;4969467;28;20359;-62
2022/10/03 10:00:21;;;;;;;;;;;20.70;99.90;;;;;;4973833;28;19930;-58
2022/10/03 10:02:57;;;;;;;;;;;20.70;99.90;;;;;;4977270;28;19930;-60
2022/10/03 10:05:38;;;;;;;;;;;20.70;99.90;;;;;;4980834;28;19930;-62
2022/10/03 10:08:28;;;;;;;;;;;20.70;99.90;;;;;;4965205;28;19938;-57
2022/10/03 10:11:02;;;;;;;;;;;20.70;99.90;;;;;;4979228;28;19926;-60
2022/10/03 10:13:58;;;;;;;;;;;20.70;99.90;;;;;;4980600;28;20439;-57
2022/10/03 10:16:52;;;;;;;;;;;20.70;99.90;;;;;;4972174;28;19925;-61
2022/10/03 10:19:20;;;;;;;;;;;20.80;99.90;;;;;;4979234;28;20275;-62
2022/10/03 10:21:56;;;;;;;;;;;20.70;99.90;;;;;;4974559;28;19930;-63
2022/10/03 10:24:32;;;;;;;;;;;20.70;99.90;;;;;;4979772;28;20401;-62
2022/10/03 10:27:02;;;;;;;;;;;20.70;99.90;;;;;;4978518;28;19936;-61
2022/10/03 10:29:48;;;;;;;;;;;20.70;99.90;;;;;;4975424;28;20321;-60
2022/10/03 10:32:34;;;;;;;;;;;20.70;99.90;;;;;;4992303;28;20437;-62
2022/10/03 10:35:21;;;;;;;;;;;20.70;99.90;;;;;;4983154;28;19933;-61
2022/10/03 10:37:48;;;;;;;;;;;20.70;99.90;;;;;;4976446;28;19930;-61
2022/10/03 10:40:33;;;;;;;;;;;20.70;99.90;;;;;;4980135;28;19937;-61
2022/10/03 10:43:00;;;;;;;;;;;20.70;99.90;;;;;;4976801;28;19926;-61
2022/10/03 10:45:34;;;;;;;;;;;20.70;99.90;;;;;;4979428;28;20320;-66
2022/10/03 10:48:20;;;;;;;;;;;20.70;99.90;;;;;;4973417;28;19938;-60
2022/10/03 10:50:49;;;;;;;;;;;20.70;99.90;;;;;;4960997;28;19937;-58
2022/10/03 10:53:36;;;;;;;;;;;20.70;99.90;;;;;;4985166;28;19953;-60
2022/10/03 10:56:16;;;;;;;;;;;20.70;99.90;;;;;;4976789;28;19930;-62
2022/10/03 10:59:02;;;;;;;;;;;20.70;99.90;;;;;;4975596;28;19937;-62
2022/10/03 11:01:44;;;;;;;;;;;20.70;99.90;;;;;;4983203;28;19929;-60
2022/10/03 11:04:30;;;;;;;;;;;20.70;99.90;;;;;;4971151;28;19931;-63
2022/10/03 11:07:10;;;;;;;;;;;20.70;99.90;;;;;;4987881;28;19938;-63
2022/10/03 11:09:45;;;;;;;;;;;20.70;99.90;;;;;;4979848;28;19929;-60
2022/10/03 11:12:31;;;;;;;;;;;20.60;99.90;;;;;;4967160;28;19965;-63
2022/10/03 11:15:35;;;;;;;;;;;20.70;99.90;;;;;;4968974;28;19961;-63
2022/10/03 11:18:11;;;;;;;;;;;20.70;99.90;;;;;;4927689;29;19927;-65
2022/10/03 11:20:44;;;;;;;;;;;20.60;99.90;;;;;;4959084;28;19945;-62
2022/10/03 11:23:21;;;;;;;;;;;20.50;99.90;;;;;;4968108;28;19930;-63
2022/10/03 11:25:52;;;;;;;;;;;20.50;99.90;;;;;;4968987;28;20441;-59
2022/10/03 11:28:26;;;;;;;;;;;20.60;99.90;;;;;;4962340;28;19933;-62
2022/10/03 11:30:56;;;;;;;;;;;20.60;99.90;;;;;;4966560;28;20211;-63
2022/10/03 11:33:40;;;;;;;;;;;20.60;99.90;;;;;;4968738;28;20223;-62
2022/10/03 11:36:26;;;;;;;;;;;20.60;99.90;;;;;;4979467;28;19930;-58
2022/10/03 11:39:02;;;;;;;;;;;20.60;99.90;;;;;;4963156;28;19937;-59
2022/10/03 11:41:45;;;;;;;;;;;20.70;99.90;;;;;;4982145;28;20274;-58
2022/10/03 11:44:15;;;;;;;;;;;20.80;99.90;;;;;;4968123;28;19930;-58
2022/10/03 11:46:49;;;;;;;;;;;21.00;99.90;;;;;;4969742;28;20346;-61
2022/10/03 11:49:44;;;;;;;;;;;21.20;99.90;;;;;;4965272;28;19933;-64
2022/10/03 11:52:14;;;;;;;;;;;21.30;99.90;;;;;;4969113;28;19930;-64
2022/10/03 11:54:44;;;;;;;;;;;21.60;99.90;;;;;;4967652;28;20295;-62
2022/10/03 11:57:27;;;;;;;;;;;21.80;99.90;;;;;;4966419;28;19937;-63
2022/10/03 12:00:16;;;;;;;;;;;21.90;99.90;;;;;;4970286;28;19929;-67
2022/10/03 12:03:06;;;;;;;;;;;22.10;99.90;;;;;;4966468;28;19930;-64
2022/10/03 12:05:47;;;;;;;;;;;22.20;99.90;;;;;;4963511;28;19937;-61
2022/10/03 12:11:16;;;;;;;;;;;22.20;99.90;;;;;;4970458;28;19930;-61
2022/10/03 12:13:59;;;;;;;;;;;22.20;99.90;;;;;;4978239;28;19933;-58
2022/10/03 12:16:36;;;;;;;;;;;22.20;99.90;;;;;;4974893;28;19930;-62
2022/10/03 12:19:11;;;;;;;;;;;22.10;99.90;;;;;;4971870;28;20406;-59
2022/10/03 12:21:46;;;;;;;;;;;22.10;99.90;;;;;;4962631;28;19930;-62
2022/10/03 12:24:13;;;;;;;;;;;22.10;99.90;;;;;;4960858;28;19930;-59
2022/10/03 12:26:44;;;;;;;;;;;22.10;99.90;;;;;;4964891;28;19926;-62
2022/10/03 12:29:13;;;;;;;;;;;22.10;99.90;;;;;;4960810;28;20402;-63
2022/10/03 12:31:47;;;;;;;;;;;22.10;99.90;;;;;;4970905;28;19998;-62
2022/10/03 12:34:23;;;;;;;;;;;22.10;99.90;;;;;;4968067;28;19930;-58
2022/10/03 12:37:08;;;;;;;;;;;22.00;99.90;;;;;;4957039;28;19929;-60
2022/10/03 12:39:51;;;;;;;;;;;22.00;99.90;;;;;;4978126;28;20510;-61
2022/10/03 12:42:29;;;;;;;;;;;22.00;99.90;;;;;;4961373;28;19930;-61
2022/10/03 12:45:02;;;;;;;;;;;22.00;99.90;;;;;;4967387;28;19956;-62
2022/10/03 12:47:49;;;;;;;;;;;22.00;99.90;;;;;;4959753;28;19960;-61
2022/10/03 12:50:41;;;;;;;;;;;22.10;99.90;;;;;;4959246;28;19930;-62
2022/10/03 12:53:15;;;;;;;;;;;22.10;99.90;;;;;;4968212;28;19930;-59
2022/10/03 12:55:50;;;;;;;;;;;22.10;99.90;;;;;;4962860;28;20407;-62
2022/10/03 12:58:23;;;;;;;;;;;22.10;99.90;;;;;;4955412;28;20235;-62
2022/10/03 13:01:01;;;;;;;;;;;22.10;99.90;;;;;;4966109;28;19930;-59
2022/10/03 13:03:38;;;;;;;;;;;22.10;99.90;;;;;;4967510;28;19930;-62
2022/10/03 13:06:45;;;;;;;;;;;22.10;99.90;;;;;;4967151;28;20361;-62
2022/10/03 13:09:31;;;;;;;;;;;22.10;99.90;;;;;;4932299;29;20399;-63
2022/10/03 13:12:07;;;;;;;;;;;22.00;99.90;;;;;;4925947;29;21011;-61
2022/10/03 13:14:53;;;;;;;;;;;22.10;99.90;;;;;;4954693;28;20333;-61
2022/10/03 13:17:35;;;;;;;;;;;22.10;99.90;;;;;;4963587;28;19937;-59
2022/10/03 13:20:11;;;;;;;;;;;22.10;99.90;;;;;;4963243;28;19937;-60
2022/10/03 13:22:54;;;;;;;;;;;22.10;99.90;;;;;;4973561;28;19934;-60
2022/10/03 13:25:36;;;;;;;;;;;22.10;99.90;;;;;;4965866;28;19934;-63
2022/10/03 13:28:11;;;;;;;;;;;22.10;99.90;;;;;;4964183;28;20310;-61
2022/10/03 13:30:38;;;;;;;;;;;22.10;99.90;;;;;;4967637;28;20444;-62
2022/10/03 13:33:17;;;;;;;;;;;22.10;99.90;;;;;;4971457;28;19952;-63
2022/10/03 13:36:04;;;;;;;;;;;22.10;99.90;;;;;;4966694;28;19937;-60
2022/10/03 13:38:51;;;;;;;;;;;22.00;99.90;;;;;;4972124;28;19926;-62
2022/10/03 13:41:30;;;;;;;;;;;22.10;99.90;;;;;;4968231;28;19934;-60
2022/10/03 13:43:59;;;;;;;;;;;22.10;99.90;;;;;;4973658;28;19929;-62
2022/10/03 13:46:30;;;;;;;;;;;22.10;99.90;;;;;;4972794;28;19934;-64
2022/10/03 13:49:09;;;;;;;;;;;22.10;99.90;;;;;;4969577;28;19941;-63
2022/10/03 13:51:46;;;;;;;;;;;22.10;99.90;;;;;;4969534;28;19937;-60
2022/10/03 13:54:20;;;;;;;;;;;22.00;99.90;;;;;;4968593;28;19933;-63
2022/10/03 13:56:53;;;;;;;;;;;22.10;99.90;;;;;;4964265;28;20436;-58
2022/10/03 13:59:23;;;;;;;;;;;22.10;99.90;;;;;;4971707;28;19930;-63
2022/10/03 14:01:50;;;;;;;;;;;22.10;99.90;;;;;;4973505;28;20048;-62
2022/10/03 14:04:20;;;;;;;;;;;22.10;99.90;;;;;;4988911;28;19941;-62
2022/10/03 14:06:50;;;;;;;;;;;22.20;99.90;;;;;;4960670;28;19934;-62
2022/10/03 14:09:37;;;;;;;;;;;22.10;99.90;;;;;;4968045;28;19949;-61
2022/10/03 14:12:07;;;;;;;;;;;22.10;99.90;;;;;;4974382;28;19934;-63
2022/10/03 14:14:49;;;;;;;;;;;22.00;99.90;;;;;;4973648;28;20444;-64
2022/10/03 14:17:21;;;;;;;;;;;22.10;99.90;;;;;;4965307;28;20459;-62
2022/10/03 14:19:54;;;;;;;;;;;22.00;99.90;;;;;;4989116;28;20333;-63
2022/10/03 14:22:36;;;;;;;;;;;22.00;99.90;;;;;;4977373;28;19953;-60
2022/10/03 14:25:15;;;;;;;;;;;22.00;99.90;;;;;;4974393;28;20302;-63
2022/10/03 14:27:49;;;;;;;;;;;22.00;99.90;;;;;;4967882;28;20394;-63
2022/10/03 14:30:23;;;;;;;;;;;21.90;99.90;;;;;;4980459;28;20386;-61
2022/10/03 14:33:10;;;;;;;;;;;21.90;99.90;;;;;;4966208;28;19953;-61
2022/10/03 14:35:54;;;;;;;;;;;21.90;99.90;;;;;;4968552;28;19930;-62
2022/10/03 14:38:21;;;;;;;;;;;21.80;99.90;;;;;;4965558;28;20409;-62
2022/10/03 14:40:49;;;;;;;;;;;21.80;99.90;;;;;;4971850;28;19934;-62
2022/10/03 14:43:16;;;;;;;;;;;21.80;99.90;;;;;;4973482;28;20464;-63
2022/10/03 14:45:47;;;;;;;;;;;21.80;99.90;;;;;;4970113;28;19927;-59
2022/10/03 14:48:23;;;;;;;;;;;21.80;99.90;;;;;;4971405;28;19937;-63
2022/10/03 14:50:53;;;;;;;;;;;21.80;99.90;;;;;;4971742;28;20306;-65
2022/10/03 14:53:23;;;;;;;;;;;21.90;99.90;;;;;;4968265;28;20395;-64
2022/10/03 14:55:55;;;;;;;;;;;21.90;99.90;;;;;;4966568;28;20431;-64
2022/10/03 14:58:27;;;;;;;;;;;21.80;99.90;;;;;;4968366;28;20369;-61
2022/10/03 15:01:11;;;;;;;;;;;21.80;99.90;;;;;;4980215;28;19933;-63
2022/10/03 15:03:48;;;;;;;;;;;21.80;99.90;;;;;;4970151;28;19941;-61
2022/10/03 15:06:20;;;;;;;;;;;21.80;99.90;;;;;;4965062;28;19950;-63
2022/10/03 15:08:50;;;;;;;;;;;21.80;99.90;;;;;;4965981;28;20421;-63
2022/10/03 15:11:22;;;;;;;;;;;21.80;99.90;;;;;;4972863;28;20402;-61
2022/10/03 15:13:52;;;;;;;;;;;21.80;99.90;;;;;;4974135;28;19930;-65
2022/10/03 15:16:21;;;;;;;;;;;21.90;99.90;;;;;;4969648;28;20401;-64
2022/10/03 15:18:56;;;;;;;;;;;21.90;99.90;;;;;;4967583;28;19930;-63
2022/10/03 15:21:24;;;;;;;;;;;22.00;99.90;;;;;;4965160;28;19937;-65
2022/10/03 15:23:57;;;;;;;;;;;22.10;99.90;;;;;;4966923;28;19926;-66
2022/10/03 15:26:26;;;;;;;;;;;22.10;99.90;;;;;;4989064;28;19934;-61
2022/10/03 15:28:58;;;;;;;;;;;22.20;99.90;;;;;;4972376;28;20445;-63
2022/10/03 15:31:31;;;;;;;;;;;22.30;99.90;;;;;;4970747;28;19933;-63
2022/10/03 15:33:59;;;;;;;;;;;22.30;99.90;;;;;;4950349;28;19949;-63